createdAt,value
2019-02-27T00:00:11.402Z,77.50
2019-02-27T00:02:40.743Z,77.70
2019-02-27T00:05:08.973Z,77.70
2019-02-27T00:07:35.384Z,78.10
2019-02-27T00:10:05.945Z,79.10
2019-02-27T00:12:31.304Z,79.50
2019-02-27T00:14:57.525Z,79.40
2019-02-27T00:17:23.713Z,79.10
2019-02-27T00:19:50.050Z,79.70
2019-02-27T00:22:17.712Z,79.50
2019-02-27T00:24:44.476Z,79.60
2019-02-27T00:27:14.586Z,79.60
2019-02-27T00:29:39.029Z,79.30
2019-02-27T00:32:05.260Z,78.90
2019-02-27T00:34:33.003Z,78.00
2019-02-27T00:36:59.597Z,77.80
2019-02-27T00:39:25.768Z,78.50
2019-02-27T00:41:51.954Z,77.60
2019-02-27T00:44:19.286Z,77.50
2019-02-27T00:46:47.278Z,77.40
2019-02-27T00:49:13.477Z,77.20
2019-02-27T00:51:39.649Z,77.30
2019-02-27T00:54:05.848Z,77.30
2019-02-27T00:56:32.017Z,77.50
2019-02-27T00:59:00.205Z,78.00
2019-02-27T01:01:27.390Z,77.50
2019-02-27T01:03:53.605Z,77.40
2019-02-27T01:06:19.764Z,77.40
2019-02-27T01:08:45.973Z,76.80
2019-02-27T01:11:12.176Z,76.50
2019-02-27T01:13:39.481Z,75.80
2019-02-27T01:16:05.676Z,75.40
2019-02-27T01:18:31.863Z,75.30
2019-02-27T01:20:58.045Z,76.10
2019-02-27T01:23:24.221Z,76.80
2019-02-27T01:25:50.428Z,76.30
2019-02-27T01:28:16.694Z,76.60
2019-02-27T01:30:44.543Z,76.10
2019-02-27T01:33:10.752Z,77.10
2019-02-27T01:35:36.928Z,76.00
2019-02-27T01:38:05.262Z,75.10
2019-02-27T01:40:31.226Z,74.90
2019-02-27T01:42:58.789Z,74.70
2019-02-27T01:45:24.957Z,74.20
2019-02-27T01:47:52.258Z,73.60
2019-02-27T01:50:33.126Z,73.50
2019-02-27T01:52:59.321Z,74.10
2019-02-27T01:55:25.542Z,74.70
2019-02-27T01:57:51.734Z,74.70
2019-02-27T02:00:17.929Z,74.40
2019-02-27T02:02:45.059Z,74.40
2019-02-27T02:05:11.231Z,74.60
2019-02-27T02:07:40.162Z,74.80
2019-02-27T02:10:09.117Z,75.40
2019-02-27T02:12:35.408Z,75.80
2019-02-27T02:15:30.928Z,76.20
2019-02-27T02:18:11.867Z,78.10
2019-02-27T02:20:51.092Z,78.70
2019-02-27T02:23:27.139Z,78.80
2019-02-27T02:26:01.355Z,78.70
2019-02-27T02:28:48.860Z,79.80
2019-02-27T02:31:41.617Z,78.70
2019-02-27T02:34:12.475Z,79.20
2019-02-27T02:36:51.720Z,80.40
2019-02-27T02:39:55.728Z,81.80
2019-02-27T02:43:03.111Z,81.80
2019-02-27T02:45:47.913Z,81.70
2019-02-27T02:48:27.937Z,82.10
2019-02-27T02:51:30.059Z,82.90
2019-02-27T02:54:18.160Z,83.50
2019-02-27T02:57:00.076Z,82.80
2019-02-27T02:59:46.426Z,82.80
2019-02-27T03:02:25.537Z,83.30
2019-02-27T03:05:13.510Z,83.40
2019-02-27T03:07:52.593Z,83.00
2019-02-27T03:10:34.107Z,82.70
2019-02-27T03:13:28.035Z,83.70
2019-02-27T03:16:04.879Z,83.70
2019-02-27T03:18:39.887Z,83.80
2019-02-27T03:21:28.855Z,83.90
2019-02-27T03:24:15.413Z,83.80
2019-02-27T03:26:54.361Z,84.00
2019-02-27T03:29:52.184Z,84.40
2019-02-27T03:32:41.248Z,85.00
2019-02-27T03:35:29.091Z,84.70
2019-02-27T03:38:02.861Z,85.10
2019-02-27T03:40:49.814Z,86.10
2019-02-27T03:43:22.907Z,87.10
2019-02-27T03:46:02.943Z,86.60
2019-02-27T03:49:03.147Z,86.00
2019-02-27T03:51:59.943Z,85.70
2019-02-27T03:54:57.080Z,86.00
2019-02-27T03:57:27.128Z,86.40
2019-02-27T04:00:19.170Z,86.70
2019-02-27T04:02:59.473Z,87.00
2019-02-27T04:05:29.846Z,86.50
2019-02-27T04:08:17.900Z,86.90
2019-02-27T04:10:44.094Z,87.00
2019-02-27T04:13:10.249Z,87.10
2019-02-27T04:15:36.442Z,86.90
2019-02-27T04:18:08.404Z,87.20
2019-02-27T04:20:34.604Z,87.40
2019-02-27T04:23:00.795Z,87.60
2019-02-27T04:25:31.121Z,87.70
2019-02-27T04:27:56.193Z,87.50
2019-02-27T04:30:22.642Z,87.50
2019-02-27T04:32:49.024Z,87.10
2019-02-27T04:35:15.269Z,87.30
2019-02-27T04:37:41.422Z,87.50
2019-02-27T04:40:10.846Z,87.50
2019-02-27T04:42:35.679Z,88.00
2019-02-27T04:45:02.507Z,88.50
2019-02-27T04:47:30.310Z,88.30
2019-02-27T04:49:56.476Z,88.00
2019-02-27T04:52:24.425Z,88.50
2019-02-27T04:54:50.746Z,88.80
2019-02-27T04:57:16.935Z,88.70
2019-02-27T04:59:43.193Z,89.20
2019-02-27T05:02:09.397Z,89.00
2019-02-27T05:04:35.886Z,89.00
2019-02-27T05:07:02.140Z,89.00
2019-02-27T05:09:28.416Z,89.00
2019-02-27T05:11:54.639Z,90.50
2019-02-27T05:14:20.957Z,90.60
2019-02-27T05:16:47.802Z,90.60
2019-02-27T05:19:15.289Z,90.70
2019-02-27T05:21:41.540Z,90.60
2019-02-27T05:24:08.616Z,90.00
2019-02-27T05:26:35.030Z,89.50
2019-02-27T05:29:01.225Z,89.50
2019-02-27T05:31:27.414Z,88.90
2019-02-27T05:33:53.606Z,89.70
2019-02-27T05:36:19.776Z,90.30
2019-02-27T05:38:45.983Z,90.80
2019-02-27T05:41:12.152Z,90.40
2019-02-27T05:43:38.403Z,89.70
2019-02-27T05:46:04.589Z,89.60
2019-02-27T05:48:30.804Z,90.20
2019-02-27T05:50:57.144Z,91.00
2019-02-27T05:53:23.415Z,91.40
2019-02-27T05:55:49.573Z,91.40
2019-02-27T05:58:15.806Z,91.60
2019-02-27T06:00:41.968Z,91.10
2019-02-27T06:03:08.169Z,90.40
2019-02-27T06:05:35.916Z,90.00
2019-02-27T06:08:02.878Z,89.60
2019-02-27T06:10:29.108Z,90.00
2019-02-27T06:12:55.268Z,90.00
2019-02-27T06:15:21.491Z,89.80
2019-02-27T06:17:49.098Z,90.20
2019-02-27T06:20:15.770Z,90.30
2019-02-27T06:22:41.940Z,90.20
2019-02-27T06:25:13.324Z,89.80
2019-02-27T06:27:39.939Z,89.70
2019-02-27T06:30:27.953Z,89.90
2019-02-27T06:32:54.465Z,89.60
2019-02-27T06:35:21.739Z,89.00
2019-02-27T06:37:50.465Z,89.50
2019-02-27T06:40:18.094Z,89.10
2019-02-27T06:42:44.473Z,88.40
2019-02-27T06:45:13.402Z,87.60
2019-02-27T06:47:39.571Z,87.10
2019-02-27T06:50:08.837Z,86.60
2019-02-27T06:52:35.021Z,86.30
2019-02-27T06:55:01.310Z,85.70
2019-02-27T06:57:27.506Z,85.10
2019-02-27T06:59:53.901Z,85.40
2019-02-27T07:02:21.707Z,84.70
2019-02-27T07:04:48.180Z,83.80
2019-02-27T07:07:14.344Z,83.10
2019-02-27T07:09:40.542Z,82.30
2019-02-27T07:12:07.296Z,81.80
2019-02-27T07:14:33.689Z,81.40
2019-02-27T07:16:59.854Z,80.80
2019-02-27T07:19:26.037Z,80.10
2019-02-27T07:21:52.226Z,78.60
2019-02-27T07:24:18.709Z,77.40
2019-02-27T07:26:44.872Z,76.10
2019-02-27T07:29:11.056Z,75.20
2019-02-27T07:31:37.213Z,74.50
2019-02-27T07:34:03.405Z,73.30
2019-02-27T07:36:29.587Z,70.40
2019-02-27T07:38:57.655Z,68.50
2019-02-27T07:41:24.140Z,65.70
2019-02-27T07:43:50.309Z,63.40
2019-02-27T07:46:16.490Z,61.90
2019-02-27T07:48:42.660Z,61.60
2019-02-27T07:51:08.856Z,58.60
2019-02-27T07:53:35.019Z,53.00
2019-02-27T07:56:01.518Z,50.60
2019-02-27T07:58:29.275Z,47.90
2019-02-27T08:00:55.909Z,47.00
2019-02-27T08:03:22.080Z,45.10
2019-02-27T08:05:48.612Z,45.10
2019-02-27T08:08:14.922Z,43.30
2019-02-27T08:10:41.089Z,42.30
2019-02-27T08:13:07.291Z,40.60
2019-02-27T08:15:33.560Z,39.20
2019-02-27T08:17:59.917Z,38.20
2019-02-27T08:20:26.198Z,36.10
2019-02-27T08:22:52.388Z,35.10
2019-02-27T08:25:19.555Z,34.80
2019-02-27T08:27:45.723Z,33.40
2019-02-27T08:30:14.988Z,32.20
2019-02-27T08:32:41.186Z,31.60
2019-02-27T08:35:07.336Z,31.30
2019-02-27T08:37:33.505Z,29.80
2019-02-27T08:39:59.711Z,29.40
2019-02-27T08:42:25.907Z,28.50
2019-02-27T08:44:52.105Z,26.00
2019-02-27T08:47:18.267Z,25.60
2019-02-27T08:49:44.445Z,24.60
2019-02-27T08:52:13.133Z,24.50
2019-02-27T08:54:39.717Z,24.40
2019-02-27T08:57:05.888Z,23.60
2019-02-27T08:59:33.159Z,22.80
2019-02-27T09:02:01.024Z,23.00
2019-02-27T09:04:27.220Z,22.10
2019-02-27T09:06:53.392Z,21.40
2019-02-27T09:09:19.558Z,20.60
2019-02-27T09:11:45.788Z,20.90
2019-02-27T09:14:13.349Z,21.90
2019-02-27T09:16:45.897Z,21.40
2019-02-27T09:21:39.352Z,20.40
2019-02-27T09:24:05.504Z,19.90
2019-02-27T09:26:36.000Z,19.90
2019-02-27T09:28:59.754Z,18.80
2019-02-27T09:31:26.073Z,19.60
2019-02-27T09:33:53.316Z,19.60
2019-02-27T09:36:20.297Z,20.40
2019-02-27T09:38:46.494Z,19.90
2019-02-27T09:41:13.088Z,20.30
2019-02-27T09:43:39.459Z,20.30
2019-02-27T09:46:06.312Z,19.80
2019-02-27T09:48:33.449Z,20.80
2019-02-27T09:51:00.280Z,20.50
2019-02-27T09:53:26.445Z,19.10
2019-02-27T09:55:54.336Z,18.70
2019-02-27T09:58:22.573Z,18.40
2019-02-27T10:00:59.197Z,18.50
2019-02-27T10:03:23.835Z,16.70
2019-02-27T10:05:50.028Z,16.40
2019-02-27T10:08:16.193Z,16.20
2019-02-27T10:10:45.170Z,16.10
2019-02-27T10:13:10.449Z,15.70
2019-02-27T10:15:36.625Z,16.20
2019-02-27T10:18:02.801Z,15.50
2019-02-27T10:20:28.994Z,14.80
2019-02-27T10:22:55.138Z,16.10
2019-02-27T10:25:22.391Z,14.40
2019-02-27T10:27:48.596Z,14.60
2019-02-27T10:30:16.701Z,15.30
2019-02-27T10:32:43.385Z,14.00
2019-02-27T10:35:10.529Z,15.60
2019-02-27T10:37:36.733Z,15.40
2019-02-27T10:40:08.743Z,15.30
2019-02-27T10:42:34.970Z,15.00
2019-02-27T10:45:01.139Z,15.50
2019-02-27T10:47:28.640Z,15.20
2019-02-27T10:49:54.796Z,15.10
2019-02-27T10:52:24.272Z,13.60
2019-02-27T10:54:49.077Z,13.90
2019-02-27T10:57:15.236Z,14.80
2019-02-27T10:59:41.435Z,14.90
2019-02-27T11:02:09.745Z,15.00
2019-02-27T11:04:36.356Z,14.40
2019-02-27T11:07:04.013Z,15.30
2019-02-27T11:09:30.275Z,16.40
2019-02-27T11:11:56.689Z,15.70
2019-02-27T11:14:22.857Z,17.10
2019-02-27T11:16:49.039Z,16.70
2019-02-27T11:19:16.615Z,16.80
2019-02-27T11:21:43.613Z,16.60
2019-02-27T11:24:09.783Z,16.60
2019-02-27T11:26:35.963Z,16.00
2019-02-27T11:29:02.153Z,15.10
2019-02-27T11:31:28.342Z,14.20
2019-02-27T11:33:54.494Z,15.40
2019-02-27T11:36:20.693Z,16.10
2019-02-27T11:38:46.873Z,15.80
2019-02-27T11:41:15.309Z,16.50
2019-02-27T11:43:41.510Z,15.60
2019-02-27T11:46:07.819Z,15.20
2019-02-27T11:48:33.987Z,14.50
2019-02-27T11:51:00.159Z,15.50
2019-02-27T11:53:26.332Z,15.80
2019-02-27T11:55:52.508Z,16.20
2019-02-27T11:58:18.893Z,16.90
2019-02-27T12:00:45.077Z,17.30
2019-02-27T12:03:11.994Z,16.70
2019-02-27T12:05:38.301Z,16.80
2019-02-27T12:08:04.504Z,16.00
2019-02-27T12:10:31.195Z,16.60
2019-02-27T12:13:00.722Z,16.30
2019-02-27T12:15:27.209Z,18.60
2019-02-27T12:17:53.704Z,20.90
2019-02-27T12:20:20.497Z,21.60
2019-02-27T12:22:46.664Z,22.60
2019-02-27T12:25:14.505Z,22.00
2019-02-27T12:27:49.015Z,23.60
2019-02-27T12:30:12.411Z,24.20
2019-02-27T12:32:38.599Z,25.10
2019-02-27T12:35:10.839Z,25.70
2019-02-27T12:37:36.592Z,25.80
2019-02-27T12:40:06.001Z,25.50
2019-02-27T12:42:37.235Z,25.40
2019-02-27T12:45:00.362Z,25.20
2019-02-27T12:47:26.557Z,26.90
2019-02-27T12:49:54.198Z,26.20
2019-02-27T12:52:22.695Z,27.00
2019-02-27T12:54:48.950Z,26.40
2019-02-27T12:57:17.448Z,27.30
2019-02-27T12:59:43.254Z,27.60
2019-02-27T13:02:10.863Z,27.50
2019-02-27T13:04:37.452Z,26.80
2019-02-27T13:07:03.988Z,28.00
2019-02-27T13:09:30.165Z,28.30
2019-02-27T13:11:56.480Z,27.30
2019-02-27T13:14:22.744Z,26.90
2019-02-27T13:16:49.499Z,27.00
2019-02-27T13:19:16.636Z,27.00
2019-02-27T13:21:42.800Z,28.10
2019-02-27T13:24:08.968Z,28.40
2019-02-27T13:26:35.413Z,28.20
2019-02-27T13:29:01.736Z,28.10
2019-02-27T13:31:27.950Z,28.20
2019-02-27T13:33:55.167Z,27.90
2019-02-27T13:36:22.620Z,28.50
2019-02-27T13:38:49.563Z,28.60
2019-02-27T13:41:17.421Z,28.90
2019-02-27T13:43:43.601Z,28.90
2019-02-27T13:46:09.774Z,29.40
2019-02-27T13:48:37.406Z,29.20
2019-02-27T13:51:04.205Z,28.50
2019-02-27T13:53:30.492Z,28.60
2019-02-27T13:55:56.774Z,28.30
2019-02-27T13:58:23.000Z,29.00
2019-02-27T14:00:49.483Z,28.80
2019-02-27T14:03:21.362Z,28.70
2019-02-27T14:05:48.195Z,29.70
2019-02-27T14:08:14.408Z,28.30
2019-02-27T14:10:40.599Z,29.20
2019-02-27T14:13:09.680Z,29.30
2019-02-27T14:15:34.914Z,29.30
2019-02-27T14:18:01.113Z,28.40
2019-02-27T14:20:28.977Z,29.50
2019-02-27T14:22:55.449Z,28.60
2019-02-27T14:25:29.857Z,29.70
2019-02-27T14:27:54.625Z,29.20
2019-02-27T14:30:24.036Z,29.20
2019-02-27T14:32:50.229Z,29.70
2019-02-27T14:35:16.828Z,29.50
2019-02-27T14:37:42.984Z,29.80
2019-02-27T14:40:12.573Z,29.50
2019-02-27T14:42:38.973Z,30.00
2019-02-27T14:45:17.385Z,29.90
2019-02-27T14:47:43.571Z,30.70
2019-02-27T14:50:15.586Z,30.00
2019-02-27T14:52:41.872Z,29.90
2019-02-27T14:55:11.262Z,29.60
2019-02-27T14:57:37.429Z,29.80
2019-02-27T15:00:07.441Z,30.10
2019-02-27T15:02:33.807Z,31.10
2019-02-27T15:04:59.992Z,30.20
2019-02-27T15:07:26.172Z,30.50
2019-02-27T15:09:52.341Z,30.60
2019-02-27T15:12:19.428Z,30.80
2019-02-27T15:14:46.559Z,31.00
2019-02-27T15:17:12.733Z,31.00
2019-02-27T15:19:40.900Z,30.80
2019-02-27T15:22:07.298Z,31.00
2019-02-27T15:24:34.774Z,32.00
2019-02-27T15:27:01.617Z,32.20
2019-02-27T15:29:28.003Z,33.00
2019-02-27T15:31:54.806Z,33.20
2019-02-27T15:34:21.728Z,32.80
2019-02-27T15:36:48.065Z,32.80
2019-02-27T15:39:20.234Z,32.40
2019-02-27T15:41:44.460Z,31.90
2019-02-27T15:44:10.645Z,31.90
2019-02-27T15:46:37.058Z,32.80
2019-02-27T15:49:03.289Z,32.60
2019-02-27T15:51:32.347Z,32.70
2019-02-27T15:53:57.567Z,33.10
2019-02-27T15:56:23.732Z,33.10
2019-02-27T15:58:50.041Z,32.80
2019-02-27T16:01:16.453Z,33.10
2019-02-27T16:03:45.449Z,33.20
2019-02-27T16:06:10.864Z,33.40
2019-02-27T16:08:37.044Z,33.40
2019-02-27T16:11:03.290Z,33.80
2019-02-27T16:13:32.063Z,34.50
2019-02-27T16:15:57.551Z,35.00
2019-02-27T16:18:23.748Z,35.40
2019-02-27T16:20:50.607Z,35.90
2019-02-27T16:23:16.909Z,36.30
2019-02-27T16:25:43.099Z,36.70
2019-02-27T16:28:12.033Z,36.90
2019-02-27T16:30:37.376Z,37.60
2019-02-27T16:33:03.545Z,38.10
2019-02-27T16:35:29.756Z,38.60
2019-02-27T16:37:57.555Z,38.80
2019-02-27T16:40:28.312Z,39.00
2019-02-27T16:42:54.489Z,40.20
2019-02-27T16:45:29.419Z,39.70
2019-02-27T16:47:57.238Z,40.00
2019-02-27T16:50:25.497Z,40.00
2019-02-27T16:52:52.586Z,40.00
2019-02-27T16:55:20.484Z,40.60
2019-02-27T16:57:46.635Z,41.70
2019-02-27T17:00:21.761Z,41.10
2019-02-27T17:02:47.977Z,41.60
2019-02-27T17:05:14.160Z,41.80
2019-02-27T17:07:40.377Z,42.10
2019-02-27T17:10:14.935Z,42.80
2019-02-27T17:12:41.565Z,43.40
2019-02-27T17:15:07.815Z,44.20
2019-02-27T17:17:33.976Z,45.00
2019-02-27T17:20:00.279Z,45.00
2019-02-27T17:22:26.612Z,45.50
2019-02-27T17:24:55.156Z,46.10
2019-02-27T17:27:21.128Z,47.00
2019-02-27T17:29:47.366Z,48.00
2019-02-27T17:32:13.549Z,47.60
2019-02-27T17:34:47.163Z,48.00
2019-02-27T17:37:10.680Z,48.80
2019-02-27T17:39:36.860Z,49.60
2019-02-27T17:42:03.057Z,50.30
2019-02-27T17:44:29.224Z,51.10
2019-02-27T17:46:55.595Z,51.60
2019-02-27T17:49:22.214Z,52.30
2019-02-27T17:51:50.059Z,52.30
2019-02-27T17:54:16.337Z,52.60
2019-02-27T17:56:47.152Z,53.60
2019-02-27T17:59:13.800Z,54.30
2019-02-27T18:01:40.072Z,55.30
2019-02-27T18:04:06.274Z,55.70
2019-02-27T18:06:34.797Z,55.60
2019-02-27T18:09:00.568Z,55.80
2019-02-27T18:11:26.728Z,56.40
2019-02-27T18:13:53.206Z,56.80
2019-02-27T18:16:19.418Z,57.30
2019-02-27T18:18:47.311Z,57.40
2019-02-27T18:21:15.484Z,57.40
2019-02-27T18:23:43.572Z,58.00
2019-02-27T18:26:12.285Z,58.80
2019-02-27T18:28:37.849Z,59.50
2019-02-27T18:31:04.091Z,59.30
2019-02-27T18:33:30.540Z,59.50
2019-02-27T18:35:56.832Z,60.00
2019-02-27T18:38:27.636Z,60.00
2019-02-27T18:40:51.542Z,61.00
2019-02-27T18:43:20.821Z,61.30
2019-02-27T18:45:48.142Z,62.00
2019-02-27T18:48:15.250Z,62.80
2019-02-27T18:50:41.544Z,63.40
2019-02-27T18:53:13.098Z,63.50
2019-02-27T18:55:35.969Z,63.60
2019-02-27T18:58:02.136Z,65.50
2019-02-27T19:00:28.522Z,65.50
2019-02-27T19:03:04.128Z,66.60
2019-02-27T19:05:30.315Z,67.50
2019-02-27T19:07:56.475Z,68.00
2019-02-27T19:10:22.683Z,67.20
2019-02-27T19:12:48.940Z,67.00
2019-02-27T19:15:25.596Z,67.80
2019-02-27T19:17:51.795Z,67.10
2019-02-27T19:20:25.160Z,67.60
2019-02-27T19:22:52.872Z,68.40
2019-02-27T19:25:19.626Z,71.50
2019-02-27T19:27:45.826Z,70.60
2019-02-27T19:30:15.191Z,70.90
2019-02-27T19:32:41.381Z,72.30
2019-02-27T19:35:07.786Z,71.60
2019-02-27T19:37:38.664Z,71.90
2019-02-27T19:40:03.168Z,72.20
2019-02-27T19:42:31.280Z,72.90
2019-02-27T19:45:03.638Z,73.20
2019-02-27T19:47:25.580Z,73.40
2019-02-27T19:49:51.825Z,73.50
2019-02-27T19:52:17.993Z,72.80
2019-02-27T19:54:44.163Z,72.60
2019-02-27T19:57:10.402Z,72.20
2019-02-27T19:59:41.711Z,72.00
2019-02-27T20:02:07.909Z,72.00
2019-02-27T20:04:34.484Z,72.50
2019-02-27T20:07:01.842Z,73.00
2019-02-27T20:09:28.725Z,73.50
2019-02-27T20:11:55.044Z,73.90
2019-02-27T20:14:23.294Z,74.10
2019-02-27T20:16:49.518Z,74.30
2019-02-27T20:19:22.162Z,74.40
2019-02-27T20:21:44.588Z,74.90
2019-02-27T20:24:14.511Z,74.40
2019-02-27T20:26:44.433Z,74.50
2019-02-27T20:29:07.846Z,74.70
2019-02-27T20:31:34.031Z,74.70
2019-02-27T20:34:00.400Z,74.60
2019-02-27T20:36:30.282Z,74.70
2019-02-27T20:38:54.702Z,73.60
2019-02-27T20:41:21.016Z,72.80
2019-02-27T20:43:47.340Z,72.50
2019-02-27T20:46:14.759Z,72.30
2019-02-27T20:48:41.658Z,72.10
2019-02-27T20:51:07.847Z,71.90
2019-02-27T20:53:33.996Z,71.40
2019-02-27T20:56:02.885Z,71.10
2019-02-27T20:58:28.535Z,70.90
2019-02-27T21:00:54.732Z,70.80
2019-02-27T21:03:20.918Z,70.80
2019-02-27T21:05:48.545Z,70.80
2019-02-27T21:08:14.877Z,71.00
2019-02-27T21:10:41.065Z,71.40
2019-02-27T21:13:07.321Z,71.80
2019-02-27T21:15:33.582Z,73.20
2019-02-27T21:17:59.922Z,72.80
2019-02-27T21:20:26.193Z,73.20
2019-02-27T21:22:52.406Z,74.30
2019-02-27T21:25:18.593Z,74.10
2019-02-27T21:27:45.063Z,74.30
2019-02-27T21:30:19.920Z,74.30
2019-02-27T21:32:46.080Z,74.50
2019-02-27T21:35:12.262Z,74.50
2019-02-27T21:37:41.281Z,74.70
2019-02-27T21:40:15.131Z,74.40
2019-02-27T21:42:41.307Z,74.20
2019-02-27T21:45:16.104Z,74.90
2019-02-27T21:47:42.286Z,74.10
2019-02-27T21:50:10.700Z,73.90
2019-02-27T21:52:36.880Z,73.90
2019-02-27T21:55:03.048Z,74.10
2019-02-27T21:57:29.368Z,73.60
2019-02-27T21:59:55.552Z,73.40
2019-02-27T22:02:21.724Z,72.90
2019-02-27T22:04:47.921Z,72.80
2019-02-27T22:07:14.087Z,73.20
2019-02-27T22:09:40.273Z,73.50
2019-02-27T22:12:06.433Z,73.20
2019-02-27T22:14:32.627Z,72.50
2019-02-27T22:17:01.641Z,72.00
2019-02-27T22:19:26.888Z,71.70
2019-02-27T22:21:53.071Z,72.00
2019-02-27T22:24:21.033Z,73.00
2019-02-27T22:26:47.391Z,73.80
2019-02-27T22:29:13.748Z,74.30
2019-02-27T22:31:40.552Z,74.50
2019-02-27T22:34:07.488Z,74.90
2019-02-27T22:36:33.676Z,75.10
2019-02-27T22:39:01.035Z,75.50
2019-02-27T22:41:29.311Z,76.90
2019-02-27T22:43:56.416Z,77.60
2019-02-27T22:46:22.767Z,78.10
2019-02-27T22:48:48.923Z,77.80
2019-02-27T22:51:15.307Z,78.00
2019-02-27T22:53:43.428Z,78.80
2019-02-27T22:56:15.914Z,80.00
2019-02-27T22:58:40.921Z,79.90
2019-02-27T23:01:10.921Z,80.10
2019-02-27T23:03:44.088Z,81.10
2019-02-27T23:06:12.324Z,81.40
2019-02-27T23:08:38.549Z,81.70
2019-02-27T23:11:04.736Z,81.20
2019-02-27T23:13:30.889Z,79.70
2019-02-27T23:15:58.904Z,78.10
2019-02-27T23:18:25.243Z,77.10
2019-02-27T23:20:52.469Z,76.50
2019-02-27T23:23:19.545Z,76.00
2019-02-27T23:25:46.470Z,75.60
2019-02-27T23:28:13.526Z,75.70
2019-02-27T23:30:39.701Z,75.50
2019-02-27T23:33:05.868Z,75.30
2019-02-27T23:35:32.081Z,75.30
2019-02-27T23:38:03.066Z,75.40
2019-02-27T23:40:26.352Z,75.70
2019-02-27T23:42:52.515Z,76.10
2019-02-27T23:45:18.677Z,76.40
2019-02-27T23:47:44.884Z,76.30
2019-02-27T23:50:12.318Z,76.40
2019-02-27T23:52:38.461Z,76.40
2019-02-27T23:55:07.123Z,76.40
2019-02-27T23:57:33.872Z,76.60
